createdAt,value
2022-09-05T00:00:53.221Z,100297.73
2022-09-05T00:04:26.450Z,100300.98
2022-09-05T00:08:16.994Z,100300.39
2022-09-05T00:11:55.055Z,100302.00
2022-09-05T00:15:34.214Z,100298.73
2022-09-05T00:24:19.456Z,100297.13
2022-09-05T00:24:42.110Z,100299.86
2022-09-05T00:27:03.842Z,100293.64
2022-09-05T00:31:07.058Z,100292.48
2022-09-05T00:34:21.833Z,100291.91
2022-09-05T00:37:46.503Z,100292.53
2022-09-05T00:41:12.181Z,100289.05
2022-09-05T00:44:36.601Z,100284.88
2022-09-05T00:48:03.327Z,100285.33
2022-09-05T00:51:40.206Z,100285.13
2022-09-05T00:55:18.882Z,100285.00
2022-09-05T00:59:14.185Z,100283.69
2022-09-05T01:03:11.705Z,100281.66
2022-09-05T01:06:44.330Z,100282.66
2022-09-05T01:10:43.725Z,100283.83
2022-09-05T01:14:20.677Z,100283.14
2022-09-05T01:17:57.279Z,100282.31
2022-09-05T01:21:35.046Z,100288.16
2022-09-05T01:25:23.696Z,100285.14
2022-09-05T01:29:18.728Z,100288.05
2022-09-05T01:33:06.011Z,100291.57
2022-09-05T01:36:53.797Z,100294.88
2022-09-05T01:40:21.084Z,100294.73
2022-09-05T01:44:02.362Z,100297.50
2022-09-05T01:47:35.462Z,100297.23
2022-09-05T01:51:29.290Z,100293.38
2022-09-05T01:55:24.585Z,100297.08
2022-09-05T01:58:58.049Z,100299.30
2022-09-05T02:02:32.811Z,100300.77
2022-09-05T02:06:23.533Z,100304.17
2022-09-05T02:10:17.299Z,100306.28
2022-09-05T02:13:57.756Z,100307.50
2022-09-05T02:17:49.934Z,100301.75
2022-09-05T02:21:24.246Z,100303.36
2022-09-05T02:24:48.868Z,100305.73
2022-09-05T02:28:20.713Z,100306.61
2022-09-05T02:31:50.974Z,100309.13
2022-09-05T02:35:25.161Z,100307.37
2022-09-05T02:45:00.498Z,100310.84
2022-09-05T02:45:14.077Z,100309.57
2022-09-05T02:46:48.574Z,100314.47
2022-09-05T02:54:07.874Z,100315.95
2022-09-05T02:57:35.238Z,100317.70
2022-09-05T02:58:21.108Z,100309.84
2022-09-05T03:02:02.015Z,100314.90
2022-09-05T03:05:32.400Z,100313.08
2022-09-05T03:09:16.850Z,100313.39
2022-09-05T03:13:06.886Z,100315.42
2022-09-05T03:16:33.536Z,100319.73
2022-09-05T03:20:20.754Z,100315.98
2022-09-05T03:24:11.181Z,100318.72
2022-09-05T03:28:10.230Z,100320.56
2022-09-05T03:32:09.857Z,100322.54
2022-09-05T03:35:53.012Z,100324.31
2022-09-05T03:39:39.770Z,100329.48
2022-09-05T03:43:26.129Z,100332.52
2022-09-05T03:46:53.953Z,100339.08
2022-09-05T03:56:47.332Z,100341.60
2022-09-05T03:57:23.498Z,100342.52
2022-09-05T03:58:56.887Z,100339.45
2022-09-05T04:08:05.765Z,100343.57
2022-09-05T04:08:16.374Z,100345.93
2022-09-05T04:10:01.101Z,100351.48
2022-09-05T04:13:31.104Z,100353.48
2022-09-05T04:17:03.913Z,100354.41
2022-09-05T04:20:47.989Z,100351.92
2022-09-05T04:24:16.170Z,100357.02
2022-09-05T04:27:48.822Z,100364.23
2022-09-05T04:31:17.622Z,100370.39
2022-09-05T04:35:07.153Z,100373.69
2022-09-05T04:38:38.170Z,100379.46
2022-09-05T04:42:02.925Z,100381.72
2022-09-05T04:45:25.228Z,100382.17
2022-09-05T04:49:05.739Z,100386.25
2022-09-05T04:53:04.624Z,100387.58
2022-09-05T04:56:31.374Z,100396.90
2022-09-05T05:03:40.526Z,100396.77
2022-09-05T05:06:09.580Z,100400.52
2022-09-05T05:07:31.261Z,100403.17
2022-09-05T05:14:17.553Z,100401.85
2022-09-05T05:18:15.466Z,100404.09
2022-09-05T05:18:48.843Z,100408.25
2022-09-05T05:22:18.486Z,100413.23
2022-09-05T05:25:48.151Z,100408.84
2022-09-05T05:29:20.777Z,100412.38
2022-09-05T05:32:47.924Z,100416.70
2022-09-05T05:36:17.285Z,100417.78
2022-09-05T05:39:44.821Z,100419.41
2022-09-05T05:43:15.134Z,100424.38
2022-09-05T05:46:39.887Z,100426.00
2022-09-05T09:24:40.733Z,100403.36
2022-09-05T09:28:46.422Z,100401.77
2022-09-05T09:32:11.249Z,100401.35
2022-09-05T09:35:59.842Z,100399.61
2022-09-05T09:39:49.632Z,100394.20
2022-09-05T09:43:20.595Z,100396.24
2022-09-05T09:46:46.489Z,100398.55
2022-09-05T09:50:20.333Z,100398.98
2022-09-05T09:53:45.550Z,100395.70
2022-09-05T09:57:19.081Z,100392.93
2022-09-05T10:00:51.370Z,100391.02
2022-09-05T10:10:04.432Z,100386.05
2022-09-05T10:10:47.956Z,100383.41
2022-09-05T10:13:08.334Z,100379.83
2022-09-05T10:16:55.341Z,100376.94
2022-09-05T10:20:44.642Z,100374.95
2022-09-05T10:24:34.411Z,100366.48
2022-09-05T10:28:05.303Z,100364.60
2022-09-05T10:35:06.956Z,100369.15
2022-09-05T10:35:51.433Z,100372.10
2022-09-05T10:39:23.978Z,100364.34
2022-09-05T10:43:00.570Z,100361.36
2022-09-05T10:46:57.032Z,100362.27
2022-09-05T10:50:35.144Z,100364.34
2022-09-05T10:54:18.455Z,100360.77
2022-09-05T10:57:57.509Z,100355.48
2022-09-05T11:02:22.466Z,100355.21
2022-09-05T11:05:37.524Z,100358.89
2022-09-05T11:09:07.006Z,100353.95
2022-09-05T11:12:48.081Z,100346.87
2022-09-05T11:16:38.274Z,100336.25
2022-09-05T11:20:27.649Z,100339.04
2022-09-05T11:24:18.681Z,100329.56
2022-09-05T11:27:47.658Z,100328.41
2022-09-05T11:31:14.489Z,100324.70
2022-09-05T11:39:58.277Z,100336.63
2022-09-05T11:40:04.813Z,100335.45
2022-09-05T11:43:13.839Z,100326.80
2022-09-05T11:46:48.176Z,100322.25
2022-09-05T11:50:25.929Z,100319.96
2022-09-05T11:53:57.475Z,100316.33
2022-09-05T11:57:38.858Z,100316.21
2022-09-05T12:01:42.449Z,100320.23
2022-09-05T12:05:48.922Z,100315.95
2022-09-05T12:09:24.476Z,100313.80
2022-09-05T12:13:29.188Z,100311.81
2022-09-05T12:17:34.847Z,100310.85
2022-09-05T12:21:19.463Z,100304.46
2022-09-05T12:29:33.483Z,100296.95
2022-09-05T12:36:05.731Z,100289.10
2022-09-05T12:40:53.918Z,100288.67
2022-09-05T12:41:37.514Z,100280.86
2022-09-05T12:42:10.082Z,100303.41
2022-09-05T12:44:44.527Z,100275.75
2022-09-05T12:48:22.467Z,100281.80
2022-09-05T12:52:02.437Z,100282.45
2022-09-05T12:55:36.588Z,100279.38
2022-09-05T13:03:05.470Z,100275.99
2022-09-05T13:03:11.190Z,100273.23
2022-09-05T13:06:31.826Z,100272.15
2022-09-05T13:12:19.751Z,100272.79
2022-09-05T13:15:01.784Z,100268.96
2022-09-05T13:18:08.599Z,100267.23
2022-09-05T13:21:31.258Z,100265.33
2022-09-05T13:25:05.121Z,100266.50
2022-09-05T13:28:35.418Z,100266.05
2022-09-05T13:37:58.028Z,100264.16
2022-09-05T13:38:03.575Z,100263.48
2022-09-05T13:39:56.234Z,100259.39
2022-09-05T13:43:38.484Z,100255.18
2022-09-05T13:47:16.353Z,100256.77
2022-09-05T13:50:53.177Z,100251.60
2022-09-05T13:54:14.712Z,100252.31
2022-09-05T13:57:44.711Z,100251.66
2022-09-05T14:01:34.007Z,100249.70
2022-09-05T14:05:06.409Z,100249.24
2022-09-05T14:08:37.433Z,100250.83
2022-09-05T14:13:00.506Z,100246.67
2022-09-05T14:16:31.982Z,100241.54
2022-09-05T14:20:12.985Z,100240.98
2022-09-05T14:23:45.355Z,100240.44
2022-09-05T14:27:31.902Z,100234.96
2022-09-05T14:33:21.172Z,100240.65
2022-09-05T14:37:50.882Z,100238.77
2022-09-05T14:38:15.204Z,100235.38
2022-09-05T14:41:28.270Z,100235.75
2022-09-05T14:44:54.843Z,100231.30
2022-09-05T14:47:59.838Z,100227.48
2022-09-05T14:51:04.961Z,100223.49
2022-09-05T15:02:42.516Z,100216.33
2022-09-05T15:02:52.382Z,100216.36
2022-09-05T15:04:45.808Z,100215.90
2022-09-05T15:07:49.502Z,100215.93
2022-09-05T15:12:20.852Z,100213.98
2022-09-05T15:14:18.802Z,100214.52
2022-09-05T15:17:23.782Z,100213.00
2022-09-05T15:20:41.123Z,100205.98
2022-09-05T15:23:44.586Z,100205.13
2022-09-05T15:26:56.268Z,100205.38
2022-09-05T15:29:57.984Z,100202.94
2022-09-05T15:33:17.929Z,100200.05
2022-09-05T15:36:33.141Z,100201.70
2022-09-05T15:39:35.070Z,100200.40
2022-09-05T15:42:38.838Z,100202.54
2022-09-05T15:45:40.673Z,100201.35
2022-09-05T15:48:43.663Z,100205.02
2022-09-05T15:51:57.875Z,100208.70
2022-09-05T15:55:14.097Z,100204.98
2022-09-05T15:58:17.790Z,100203.88
2022-09-05T16:01:31.192Z,100205.05
2022-09-05T16:10:39.981Z,100196.11
2022-09-05T16:10:50.492Z,100198.17
2022-09-05T16:12:16.429Z,100194.37
2022-09-05T16:18:06.929Z,100189.95
2022-09-05T16:23:17.444Z,100186.94
2022-09-05T16:23:27.597Z,100184.10
2022-09-05T16:25:57.090Z,100182.91
2022-09-05T16:29:01.403Z,100181.09
2022-09-05T16:32:12.612Z,100184.63
2022-09-05T16:35:16.495Z,100181.45
2022-09-05T16:38:25.797Z,100179.36
2022-09-05T16:41:53.820Z,100185.52
2022-09-05T16:45:06.331Z,100183.42
2022-09-05T16:48:34.586Z,100184.34
2022-09-05T16:51:45.385Z,100184.92
2022-09-05T16:54:58.621Z,100187.45
2022-09-05T16:58:14.514Z,100188.30
2022-09-05T17:01:35.826Z,100183.30
2022-09-05T17:04:37.742Z,100183.05
2022-09-05T17:08:06.203Z,100178.85
2022-09-05T17:11:12.386Z,100182.02
2022-09-05T17:14:25.290Z,100182.51
2022-09-05T17:18:20.875Z,100190.06
2022-09-05T17:21:46.950Z,100200.46
2022-09-05T17:29:25.747Z,100203.41
2022-09-05T17:29:34.293Z,100204.73
2022-09-05T17:32:18.921Z,100205.36
2022-09-05T17:35:41.707Z,100208.48
2022-09-05T17:38:48.026Z,100213.77
2022-09-05T17:41:55.951Z,100211.30
2022-09-05T17:45:23.193Z,100212.92
2022-09-05T17:49:17.575Z,100215.99
2022-09-05T17:52:17.542Z,100224.38
2022-09-05T17:55:19.428Z,100225.09
2022-09-05T17:58:49.642Z,100225.76
2022-09-05T18:02:07.346Z,100230.50
2022-09-05T18:05:51.923Z,100236.94
2022-09-05T18:08:53.658Z,100238.34
2022-09-05T18:15:33.915Z,100242.04
2022-09-05T18:19:27.815Z,100239.08
2022-09-05T18:22:11.349Z,100244.70
2022-09-05T18:25:30.801Z,100252.14
2022-09-05T18:29:01.732Z,100252.21
2022-09-05T18:32:05.681Z,100253.30
2022-09-05T18:35:29.254Z,100251.95
2022-09-05T18:38:51.419Z,100258.47
2022-09-05T18:42:07.030Z,100258.71
2022-09-05T18:45:28.440Z,100262.71
2022-09-05T18:48:42.380Z,100265.34
2022-09-05T18:51:54.654Z,100269.92
2022-09-05T18:56:11.092Z,100269.63
2022-09-05T18:58:59.485Z,100276.63
2022-09-05T19:02:26.736Z,100274.13
2022-09-05T19:05:51.049Z,100270.37
2022-09-05T19:09:05.862Z,100274.77
2022-09-05T19:12:31.907Z,100270.64
2022-09-05T19:15:36.459Z,100262.38
2022-09-05T19:19:08.206Z,100264.72
2022-09-05T19:23:09.177Z,100267.85
2022-09-05T19:25:37.829Z,100270.69
2022-09-05T19:35:15.498Z,100268.41
2022-09-05T19:36:54.918Z,100269.15
2022-09-05T19:37:24.082Z,100268.77
2022-09-05T19:41:47.902Z,100259.89
2022-09-05T19:47:35.662Z,100254.94
2022-09-05T19:47:40.834Z,100256.86
2022-09-05T19:49:12.497Z,100253.77
2022-09-05T19:52:16.390Z,100252.91
2022-09-05T19:55:22.012Z,100252.30
2022-09-05T19:58:24.537Z,100250.80
2022-09-05T20:01:26.691Z,100244.59
2022-09-05T20:04:32.278Z,100245.98
2022-09-05T20:07:35.949Z,100242.95
2022-09-05T20:10:38.879Z,100244.16
2022-09-05T20:13:40.622Z,100245.30
2022-09-05T20:16:42.494Z,100246.71
2022-09-05T20:19:45.029Z,100242.94
2022-09-05T20:22:50.655Z,100246.96
2022-09-05T20:25:54.689Z,100247.36
2022-09-05T20:29:01.638Z,100240.95
2022-09-05T20:32:04.205Z,100242.70
2022-09-05T20:39:59.579Z,100242.67
2022-09-05T20:43:21.003Z,100233.85
2022-09-05T20:43:35.216Z,100242.69
2022-09-05T20:45:44.638Z,100234.80
2022-09-05T20:54:07.644Z,100231.17
2022-09-05T20:54:21.532Z,100233.86
2022-09-05T20:55:39.492Z,100233.91
2022-09-05T20:58:48.306Z,100242.05
2022-09-05T21:02:07.187Z,100240.48
2022-09-05T21:05:20.598Z,100238.39
2022-09-05T21:08:36.713Z,100241.23
2022-09-05T21:11:38.548Z,100244.16
2022-09-05T21:14:40.231Z,100246.34
2022-09-05T21:17:42.078Z,100244.81
2022-09-05T21:20:56.954Z,100249.36
2022-09-05T21:24:18.138Z,100257.05
2022-09-05T21:27:24.678Z,100256.50
2022-09-05T21:30:37.791Z,100254.26
2022-09-05T21:33:45.610Z,100253.92
2022-09-05T21:36:48.581Z,100257.61
2022-09-05T21:39:59.366Z,100256.16
2022-09-05T21:47:44.955Z,100255.38
2022-09-05T21:47:46.172Z,100252.05
2022-09-05T21:49:49.394Z,100252.08
2022-09-05T21:53:28.238Z,100255.52
2022-09-05T21:59:25.010Z,100251.95
2022-09-05T21:59:46.993Z,100248.64
2022-09-05T22:02:49.625Z,100256.63
2022-09-05T22:05:52.261Z,100256.92
2022-09-05T22:09:11.377Z,100254.13
2022-09-05T22:12:30.385Z,100251.65
2022-09-05T22:15:32.869Z,100249.38
2022-09-05T22:18:37.106Z,100250.73
2022-09-05T22:21:39.245Z,100243.88
2022-09-05T22:25:03.217Z,100248.77
2022-09-05T22:28:12.840Z,100238.98
2022-09-05T22:31:19.072Z,100244.63
2022-09-05T22:34:22.529Z,100245.51
2022-09-05T22:37:24.281Z,100248.95
2022-09-05T22:40:25.965Z,100251.94
2022-09-05T22:43:27.743Z,100255.30
2022-09-05T22:46:30.580Z,100252.99
2022-09-05T22:49:32.399Z,100254.87
2022-09-05T22:52:34.193Z,100253.41
2022-09-05T22:55:37.712Z,100253.33
2022-09-05T22:58:41.778Z,100250.59
2022-09-05T23:01:44.196Z,100253.73
2022-09-05T23:05:06.964Z,100254.63
2022-09-05T23:08:09.362Z,100250.07
2022-09-05T23:11:13.505Z,100245.54
2022-09-05T23:14:15.794Z,100238.00
2022-09-05T23:17:17.722Z,100232.48
2022-09-05T23:20:19.531Z,100226.96
2022-09-05T23:23:21.686Z,100219.63
2022-09-05T23:26:23.394Z,100222.15
2022-09-05T23:29:25.202Z,100220.03
2022-09-05T23:32:26.840Z,100213.32
2022-09-05T23:35:28.592Z,100208.85
2022-09-05T23:38:30.483Z,100203.59
2022-09-05T23:41:32.345Z,100203.04
2022-09-05T23:44:34.082Z,100205.51
2022-09-05T23:47:36.616Z,100203.33
2022-09-05T23:50:38.413Z,100204.67
2022-09-05T23:53:40.804Z,100206.58
2022-09-05T23:56:42.618Z,100211.00
2022-09-05T23:59:44.306Z,100212.13
